Time;durP1;ratioP1;P1;durP2;ratioP2;P2;SDS_P1;SDS_P2;PMS_P1;PMS_P2;Temp;Humidity;BMP_temperature;BMP_pressure;BME280_temperature;BME280_humidity;BME280_pressure;Samples;Min_cycle;Max_cycle;Signal;HPM_P1;HPM_P2
2020/03/25 00:00:08;;;;;;;11.5;7.7;;;;;;;2.62;41.42383;1013.491;;;;
2020/03/25 00:02:44;;;;;;;11.7;7.5;;;;;;;2.58;41.53223;1013.498;;;;
2020/03/25 00:05:18;;;;;;;12.4;7.6;;;;;;;2.54;41.64063;1013.46;;;;
2020/03/25 00:07:44;;;;;;;10.4;7.2;;;;;;;2.55;41.6416;1013.468;;;;
2020/03/25 00:10:31;;;;;;;12.5;7.9;;;;;;;2.52;41.90918;1013.462;;;;
2020/03/25 00:12:56;;;;;;;11.4;7.8;;;;;;;2.48;41.8252;1013.376;;;;
2020/03/25 00:15:22;;;;;;;11.5;7.6;;;;;;;2.44;42.06934;1013.411;;;;
2020/03/25 00:17:46;;;;;;;12.2;7.6;;;;;;;2.39;42.36719;1013.378;;;;
2020/03/25 00:20:11;;;;;;;10.3;7.6;;;;;;;2.34;42.22754;1013.357;;;;
2020/03/25 00:22:36;;;;;;;11.2;7.5;;;;;;;2.31;42.38184;1013.325;;;;
2020/03/25 00:25:01;;;;;;;12.7;8.1;;;;;;;2.26;42.48926;1013.337;;;;
2020/03/25 00:27:26;;;;;;;10.5;7.4;;;;;;;2.25;42.6123;1013.362;;;;
2020/03/25 00:29:51;;;;;;;11.4;8.1;;;;;;;2.23;42.7002;1013.323;;;;
2020/03/25 00:32:16;;;;;;;10.7;7.5;;;;;;;2.2;42.81934;1013.295;;;;
2020/03/25 00:34:42;;;;;;;11.5;7.8;;;;;;;2.23;42.93555;1013.303;;;;
2020/03/25 00:37:07;;;;;;;10.7;7.7;;;;;;;2.19;42.99805;1013.292;;;;
2020/03/25 00:39:32;;;;;;;11.9;8.2;;;;;;;2.18;43.21094;1013.267;;;;
2020/03/25 00:41:57;;;;;;;10.4;7.9;;;;;;;2.13;43.45313;1013.27;;;;
2020/03/25 00:44:22;;;;;;;11.4;8.1;;;;;;;2.14;43.58887;1013.219;;;;
2020/03/25 00:46:47;;;;;;;11.6;8.4;;;;;;;2.1;43.69727;1013.215;;;;
2020/03/25 00:49:12;;;;;;;11.2;8.2;;;;;;;2.02;43.94727;1013.184;;;;
2020/03/25 00:51:37;;;;;;;10.3;7.5;;;;;;;2;44.10254;1013.176;;;;
2020/03/25 00:54:02;;;;;;;12;8.1;;;;;;;1.98;44.22266;1013.214;;;;
2020/03/25 00:56:28;;;;;;;12.6;8.2;;;;;;;1.89;44.63965;1013.163;;;;
2020/03/25 00:58:53;;;;;;;13.3;8.6;;;;;;;1.87;44.81738;1013.161;;;;
2020/03/25 01:01:18;;;;;;;12.7;8.7;;;;;;;1.86;44.9502;1013.123;;;;
2020/03/25 01:03:43;;;;;;;12.8;8.4;;;;;;;1.76;45.1875;1013.114;;;;
2020/03/25 01:06:08;;;;;;;12.6;8.3;;;;;;;1.72;45.35059;1013.088;;;;
2020/03/25 01:08:33;;;;;;;12.6;8.4;;;;;;;1.7;45.5498;1013.065;;;;
2020/03/25 01:11:01;;;;;;;12.5;8.7;;;;;;;1.66;45.82715;1013.067;;;;
2020/03/25 01:13:26;;;;;;;12.6;8.5;;;;;;;1.64;45.7793;1013.039;;;;
2020/03/25 01:15:51;;;;;;;12.9;8.5;;;;;;;1.66;45.83789;1013.034;;;;
2020/03/25 01:18:16;;;;;;;13.6;8.8;;;;;;;1.61;45.95605;1012.963;;;;
2020/03/25 01:20:41;;;;;;;12;8.5;;;;;;;1.58;46.06445;1012.953;;;;
2020/03/25 01:23:06;;;;;;;12.9;8.5;;;;;;;1.57;46.13086;1012.954;;;;
2020/03/25 01:25:32;;;;;;;11.9;8.5;;;;;;;1.54;46.18359;1012.996;;;;
2020/03/25 01:27:57;;;;;;;11.7;8.4;;;;;;;1.53;46.28223;1012.955;;;;
2020/03/25 01:30:22;;;;;;;13.9;9.2;;;;;;;1.49;46.51465;1012.992;;;;
2020/03/25 01:32:47;;;;;;;12.4;8.9;;;;;;;1.47;46.68066;1012.974;;;;
2020/03/25 01:35:12;;;;;;;13.3;9;;;;;;;1.44;46.77832;1013.004;;;;
2020/03/25 01:37:49;;;;;;;12.4;9.1;;;;;;;1.41;46.94238;1012.957;;;;
2020/03/25 01:40:14;;;;;;;12.6;8.7;;;;;;;1.39;46.94141;1012.962;;;;
2020/03/25 01:42:39;;;;;;;13.2;9.4;;;;;;;1.35;47.21582;1012.958;;;;
2020/03/25 01:45:04;;;;;;;12.9;8.9;;;;;;;1.37;47.16113;1012.991;;;;
2020/03/25 01:47:29;;;;;;;13.5;9.1;;;;;;;1.35;47.20508;1012.978;;;;
2020/03/25 01:49:54;;;;;;;14;9.6;;;;;;;1.36;47.18359;1013.008;;;;
2020/03/25 01:52:19;;;;;;;14.2;9.6;;;;;;;1.38;47.13086;1012.966;;;;
2020/03/25 01:54:44;;;;;;;13;9;;;;;;;1.29;47.31055;1012.967;;;;
2020/03/25 01:57:09;;;;;;;14;9.3;;;;;;;1.33;47.18066;1013.006;;;;
2020/03/25 01:59:35;;;;;;;15.2;9.5;;;;;;;1.27;47.47559;1012.951;;;;
2020/03/25 02:02:00;;;;;;;12.9;9.2;;;;;;;1.2;47.80371;1012.979;;;;
2020/03/25 02:04:25;;;;;;;15.5;9.4;;;;;;;1.15;47.95605;1012.95;;;;
2020/03/25 02:07:06;;;;;;;13.5;9.2;;;;;;;1.11;48.0957;1012.937;;;;
2020/03/25 02:09:31;;;;;;;14.4;9.4;;;;;;;0.99;48.44141;1012.906;;;;
2020/03/25 02:11:56;;;;;;;12.6;9.2;;;;;;;0.92;48.80371;1012.927;;;;
2020/03/25 02:14:21;;;;;;;13.7;9.5;;;;;;;0.85;49.21875;1012.933;;;;
2020/03/25 02:16:46;;;;;;;13.6;9.4;;;;;;;0.76;49.17578;1012.937;;;;
2020/03/25 02:19:11;;;;;;;13.9;9.3;;;;;;;0.69;49.79395;1012.941;;;;
2020/03/25 02:21:36;;;;;;;13.5;9.4;;;;;;;0.62;49.77441;1012.983;;;;
2020/03/25 02:24:01;;;;;;;13.6;9.3;;;;;;;0.58;49.96094;1012.961;;;;
2020/03/25 02:26:27;;;;;;;15.8;9.5;;;;;;;0.55;49.88867;1012.945;;;;
2020/03/25 02:28:52;;;;;;;12.9;9.3;;;;;;;0.53;50.04492;1012.948;;;;
2020/03/25 02:31:17;;;;;;;12.9;9;;;;;;;0.51;50.26367;1012.906;;;;
2020/03/25 02:33:42;;;;;;;13.7;9.7;;;;;;;0.49;50.33008;1012.841;;;;
2020/03/25 02:36:09;;;;;;;13.1;9.2;;;;;;;0.47;50.57324;1012.795;;;;
2020/03/25 02:38:37;;;;;;;13.3;9.4;;;;;;;0.45;50.79395;1012.739;;;;
2020/03/25 02:41:02;;;;;;;13.6;9.7;;;;;;;0.44;51.09473;1012.721;;;;
2020/03/25 02:43:27;;;;;;;14.9;9.8;;;;;;;0.44;51.07227;1012.78;;;;
2020/03/25 02:45:52;;;;;;;16.3;10.4;;;;;;;0.41;51.18164;1012.773;;;;
2020/03/25 02:48:17;;;;;;;14.9;9.3;;;;;;;0.41;51.30371;1012.757;;;;
2020/03/25 02:50:42;;;;;;;13.5;9.5;;;;;;;0.4;51.33691;1012.685;;;;
2020/03/25 02:53:08;;;;;;;15.2;9.9;;;;;;;0.42;51.31543;1012.672;;;;
2020/03/25 02:55:33;;;;;;;14.4;9.9;;;;;;;0.41;51.68457;1012.646;;;;
2020/03/25 02:57:58;;;;;;;15.9;9.3;;;;;;;0.39;51.9043;1012.655;;;;
2020/03/25 03:00:23;;;;;;;13.2;9.3;;;;;;;0.35;51.77832;1012.625;;;;
2020/03/25 03:02:48;;;;;;;14;9.7;;;;;;;0.29;52.22754;1012.621;;;;
2020/03/25 03:05:13;;;;;;;15.3;9.8;;;;;;;0.29;52.11621;1012.607;;;;
2020/03/25 03:07:38;;;;;;;14.3;9.9;;;;;;;0.28;52.2168;1012.647;;;;
2020/03/25 03:10:03;;;;;;;14.8;9.5;;;;;;;0.28;52.09277;1012.631;;;;
2020/03/25 03:14:05;;;;;;;16.8;9.9;;;;;;;0.28;52.10352;1012.659;;;;
2020/03/25 03:16:40;;;;;;;14.3;9.7;;;;;;;0.25;52.15625;1012.598;;;;
2020/03/25 03:19:05;;;;;;;13.7;9.4;;;;;;;0.24;52.16504;1012.629;;;;
2020/03/25 03:21:30;;;;;;;15.1;10.1;;;;;;;0.24;52.47852;1012.583;;;;
2020/03/25 03:23:55;;;;;;;14;9.9;;;;;;;0.24;52.23242;1012.538;;;;
2020/03/25 03:26:21;;;;;;;13.7;10;;;;;;;0.21;52.37402;1012.587;;;;
2020/03/25 03:28:46;;;;;;;13.7;10;;;;;;;0.23;52.1084;1012.572;;;;
2020/03/25 03:31:11;;;;;;;15.1;9.6;;;;;;;0.25;52.07715;1012.532;;;;
2020/03/25 03:33:36;;;;;;;13.3;9.9;;;;;;;0.19;52.40527;1012.592;;;;
2020/03/25 03:38:26;;;;;;;13.2;9.2;;;;;;;0.14;52.55664;1012.548;;;;
2020/03/25 03:40:51;;;;;;;15.5;9.9;;;;;;;0.11;52.73047;1012.514;;;;
2020/03/25 03:43:16;;;;;;;14.4;9.6;;;;;;;0.13;52.4209;1012.461;;;;
2020/03/25 03:45:41;;;;;;;14.3;10;;;;;;;0.09;52.50488;1012.416;;;;
2020/03/25 03:48:06;;;;;;;14.4;9.5;;;;;;;0.1;52.19336;1012.374;;;;
2020/03/25 03:50:31;;;;;;;15;10.2;;;;;;;0.07;52.32422;1012.356;;;;
2020/03/25 03:52:56;;;;;;;14.5;9.6;;;;;;;0.03;52.55273;1012.36;;;;
2020/03/25 03:55:22;;;;;;;16.7;10;;;;;;;0.02;52.74121;1012.332;;;;
2020/03/25 03:57:47;;;;;;;14.1;9.9;;;;;;;0.03;52.53027;1012.364;;;;
2020/03/25 04:02:27;;;;;;;14.4;9.8;;;;;;;-0.11;53.1377;1012.358;;;;
2020/03/25 04:04:52;;;;;;;14.1;9.7;;;;;;;-0.17;53.30859;1012.326;;;;
2020/03/25 04:07:17;;;;;;;14.5;10;;;;;;;-0.17;53.36523;1012.326;;;;
2020/03/25 04:09:42;;;;;;;14.9;9.9;;;;;;;-0.19;53.48633;1012.35;;;;
2020/03/25 04:12:08;;;;;;;15.1;9.8;;;;;;;-0.27;53.75488;1012.36;;;;
2020/03/25 04:14:33;;;;;;;15;10.1;;;;;;;-0.34;54.14844;1012.385;;;;
2020/03/25 04:16:58;;;;;;;14.7;9.8;;;;;;;-0.4;54.33008;1012.361;;;;
2020/03/25 04:19:23;;;;;;;16.4;10.4;;;;;;;-0.4;54.45215;1012.37;;;;
2020/03/25 04:21:48;;;;;;;14.7;10;;;;;;;-0.41;54.57422;1012.352;;;;
2020/03/25 04:24:13;;;;;;;14.9;10.2;;;;;;;-0.43;54.89453;1012.339;;;;
2020/03/25 04:26:38;;;;;;;14.7;10;;;;;;;-0.46;54.93555;1012.349;;;;
2020/03/25 04:29:03;;;;;;;14.5;9.9;;;;;;;-0.49;55.12207;1012.375;;;;
2020/03/25 04:31:29;;;;;;;15.6;10.2;;;;;;;-0.47;55.02246;1012.396;;;;
2020/03/25 04:33:54;;;;;;;17;10.2;;;;;;;-0.53;55.16016;1012.394;;;;
2020/03/25 04:36:19;;;;;;;17;10.5;;;;;;;-0.54;55.22754;1012.468;;;;
2020/03/25 04:38:44;;;;;;;14.2;9.8;;;;;;;-0.56;55.65918;1012.408;;;;
2020/03/25 04:41:09;;;;;;;13.7;10.1;;;;;;;-0.63;55.76074;1012.329;;;;
2020/03/25 04:43:34;;;;;;;14.7;10.2;;;;;;;-0.61;55.57324;1012.39;;;;
2020/03/25 04:45:59;;;;;;;15.2;10.5;;;;;;;-0.61;55.79688;1012.406;;;;
2020/03/25 04:48:24;;;;;;;14.4;10.3;;;;;;;-0.68;55.93359;1012.425;;;;
2020/03/25 04:50:49;;;;;;;16.2;10.2;;;;;;;-0.68;55.9209;1012.399;;;;
2020/03/25 04:53:14;;;;;;;14.4;10.3;;;;;;;-0.65;55.85742;1012.434;;;;
2020/03/25 04:55:40;;;;;;;15.6;10.3;;;;;;;-0.65;55.89355;1012.395;;;;
2020/03/25 04:58:04;;;;;;;16.1;10.5;;;;;;;-0.65;55.89355;1012.464;;;;
2020/03/25 05:00:30;;;;;;;17.6;10.1;;;;;;;-0.67;56.02344;1012.442;;;;
2020/03/25 05:02:55;;;;;;;14.3;10;;;;;;;-0.7;56.18652;1012.437;;;;
2020/03/25 05:05:20;;;;;;;15.3;10.3;;;;;;;-0.72;56.3291;1012.427;;;;
2020/03/25 05:07:45;;;;;;;15.3;10;;;;;;;-0.76;56.43555;1012.47;;;;
2020/03/25 05:10:10;;;;;;;15;10.1;;;;;;;-0.79;56.65332;1012.489;;;;
2020/03/25 05:12:35;;;;;;;14.5;9.4;;;;;;;-0.79;56.70898;1012.442;;;;
2020/03/25 05:15:01;;;;;;;16;10.5;;;;;;;-0.71;56.58594;1012.511;;;;
2020/03/25 05:17:26;;;;;;;15.9;10.3;;;;;;;-0.68;56.5127;1012.489;;;;
2020/03/25 05:19:51;;;;;;;12.7;9.7;;;;;;;-0.61;56.14258;1012.509;;;;
2020/03/25 05:22:16;;;;;;;15.5;10.1;;;;;;;-0.57;56.00391;1012.535;;;;
2020/03/25 05:24:41;;;;;;;17.2;10.2;;;;;;;-0.54;55.86328;1012.516;;;;
2020/03/25 05:27:06;;;;;;;16;9.7;;;;;;;-0.48;55.47949;1012.53;;;;
2020/03/25 05:29:32;;;;;;;14.7;10.2;;;;;;;-0.42;55.47559;1012.53;;;;
2020/03/25 05:31:57;;;;;;;14.5;10.3;;;;;;;-0.43;55.56348;1012.49;;;;
2020/03/25 05:34:22;;;;;;;16.7;10.4;;;;;;;-0.41;55.2998;1012.503;;;;
2020/03/25 05:36:47;;;;;;;16;10.8;;;;;;;-0.37;55.27051;1012.538;;;;
2020/03/25 05:39:12;;;;;;;15.8;10.4;;;;;;;-0.38;55.30371;1012.526;;;;
2020/03/25 05:41:37;;;;;;;16.1;9.6;;;;;;;-0.34;55.18555;1012.532;;;;
2020/03/25 05:44:02;;;;;;;14.8;10.5;;;;;;;-0.34;55.33008;1012.513;;;;
2020/03/25 05:46:27;;;;;;;15.7;10.1;;;;;;;-0.35;55.50781;1012.537;;;;
2020/03/25 05:48:52;;;;;;;16.6;10.2;;;;;;;-0.33;55.39844;1012.523;;;;
2020/03/25 05:51:17;;;;;;;16.3;10.1;;;;;;;-0.24;55.19824;1012.525;;;;
2020/03/25 05:53:42;;;;;;;18.3;11.1;;;;;;;-0.17;54.86035;1012.536;;;;
2020/03/25 05:56:07;;;;;;;17.7;10.5;;;;;;;-0.13;54.54395;1012.528;;;;
2020/03/25 05:58:33;;;;;;;15.4;10.2;;;;;;;-0.13;54.97754;1012.531;;;;
2020/03/25 06:00:58;;;;;;;15.9;10.4;;;;;;;-0.07;54.5957;1012.499;;;;
2020/03/25 06:03:23;;;;;;;17.2;10.1;;;;;;;-0.02;54.35645;1012.495;;;;
2020/03/25 06:05:48;;;;;;;14.5;10;;;;;;;0.06;53.81836;1012.516;;;;
2020/03/25 06:08:13;;;;;;;15.7;10.2;;;;;;;0.08;54.0791;1012.554;;;;
2020/03/25 06:10:38;;;;;;;15.5;9.9;;;;;;;0.1;53.74707;1012.542;;;;
2020/03/25 06:13:03;;;;;;;17;10.4;;;;;;;0.09;53.90234;1012.513;;;;
2020/03/25 06:15:28;;;;;;;14.8;10;;;;;;;0.17;53.67773;1012.438;;;;
2020/03/25 06:17:53;;;;;;;15.8;9.3;;;;;;;0.21;53.52539;1012.418;;;;
2020/03/25 06:20:18;;;;;;;15.1;9.9;;;;;;;0.33;53.00488;1012.421;;;;
2020/03/25 06:22:43;;;;;;;15.9;9.9;;;;;;;0.41;52.91309;1012.364;;;;
2020/03/25 06:25:08;;;;;;;14.5;9.7;;;;;;;0.55;52.50586;1012.338;;;;
2020/03/25 06:27:34;;;;;;;15.1;9.8;;;;;;;0.73;52.22754;1012.33;;;;
2020/03/25 06:29:59;;;;;;;13.8;9.8;;;;;;;0.88;51.54004;1012.311;;;;
2020/03/25 06:32:24;;;;;;;16.3;10.5;;;;;;;0.93;51.44531;1012.253;;;;
2020/03/25 06:34:49;;;;;;;15.9;10.1;;;;;;;1.09;51.05078;1012.278;;;;
2020/03/25 06:37:14;;;;;;;15.2;10.1;;;;;;;1.45;50.15234;1012.218;;;;
2020/03/25 06:39:39;;;;;;;15.1;9.9;;;;;;;2.76;46.83398;1012.219;;;;
2020/03/25 06:42:04;;;;;;;14.1;9.6;;;;;;;3.93;44.12207;1012.171;;;;
2020/03/25 06:44:29;;;;;;;14.2;9.9;;;;;;;4.31;42.72852;1012.198;;;;
2020/03/25 06:46:55;;;;;;;13.3;9.6;;;;;;;4.8;41.625;1012.189;;;;
2020/03/25 06:49:20;;;;;;;14.8;10;;;;;;;5.76;39.65918;1012.151;;;;
2020/03/25 06:51:45;;;;;;;14.4;9.4;;;;;;;6.19;38.41797;1012.247;;;;
2020/03/25 06:54:10;;;;;;;13.3;9.3;;;;;;;6.63;37.99219;1012.214;;;;
2020/03/25 06:56:35;;;;;;;14.8;10.1;;;;;;;6.47;37.28711;1012.219;;;;
2020/03/25 06:59:00;;;;;;;14;9.2;;;;;;;6.91;37.08594;1012.166;;;;
2020/03/25 07:01:25;;;;;;;15.6;9.9;;;;;;;6.88;36.7207;1012.167;;;;
2020/03/25 07:03:50;;;;;;;12.1;9.2;;;;;;;7.17;35.96094;1012.183;;;;
2020/03/25 07:06:15;;;;;;;14;9.3;;;;;;;7.71;35.16602;1012.155;;;;
2020/03/25 07:08:41;;;;;;;14.9;9.6;;;;;;;7.72;35.03027;1012.144;;;;
2020/03/25 07:11:06;;;;;;;15.1;9.9;;;;;;;8.07;34.77344;1012.189;;;;
2020/03/25 07:13:31;;;;;;;17.4;9.9;;;;;;;8.58;34.05078;1012.271;;;;
2020/03/25 07:15:56;;;;;;;13.6;9.4;;;;;;;9.08;33.08691;1012.22;;;;
2020/03/25 07:18:21;;;;;;;15.8;9.7;;;;;;;9.32;32.20313;1012.166;;;;
2020/03/25 07:20:46;;;;;;;14.4;9.6;;;;;;;9.62;32.3291;1012.127;;;;
2020/03/25 07:23:12;;;;;;;15.2;10.1;;;;;;;9.1;31.99219;1012.13;;;;
2020/03/25 07:25:37;;;;;;;14.7;9.8;;;;;;;9.9;31.22852;1012.184;;;;
2020/03/25 07:28:02;;;;;;;14.2;9.8;;;;;;;8.79;32.48242;1012.205;;;;
2020/03/25 07:30:27;;;;;;;14.5;9.6;;;;;;;8.79;32.25586;1012.222;;;;
2020/03/25 07:32:52;;;;;;;14.9;9.5;;;;;;;9.14;32.23535;1012.25;;;;
2020/03/25 07:35:17;;;;;;;15.5;9.9;;;;;;;8.93;32.37891;1012.236;;;;
2020/03/25 07:37:42;;;;;;;12.8;9.3;;;;;;;10.14;31.17773;1012.147;;;;
2020/03/25 07:40:08;;;;;;;13.2;9.3;;;;;;;9.69;30.71094;1012.201;;;;
2020/03/25 07:42:33;;;;;;;13.6;9.4;;;;;;;8.6;31.86426;1012.119;;;;
2020/03/25 07:44:58;;;;;;;13.9;9.4;;;;;;;8.24;33.16992;1012.155;;;;
2020/03/25 07:47:23;;;;;;;15.1;9.1;;;;;;;8.18;32.6416;1012.112;;;;
2020/03/25 07:49:48;;;;;;;15.1;9.7;;;;;;;8.09;33.73926;1012.022;;;;
2020/03/25 07:52:13;;;;;;;14.1;9.8;;;;;;;8.57;32.62598;1012.032;;;;
2020/03/25 07:54:38;;;;;;;15.4;10.1;;;;;;;7.96;33.54688;1012.015;;;;
2020/03/25 07:57:03;;;;;;;14.3;9.6;;;;;;;8.97;31.95996;1011.959;;;;
2020/03/25 07:59:29;;;;;;;14.8;9.4;;;;;;;8.59;32.30762;1012.024;;;;
2020/03/25 08:01:54;;;;;;;14.8;9.8;;;;;;;8.84;32.39453;1011.991;;;;
2020/03/25 08:04:19;;;;;;;15.5;9.6;;;;;;;8.22;32.72461;1012.065;;;;
2020/03/25 08:06:44;;;;;;;14.5;9.5;;;;;;;7.64;33.93164;1011.932;;;;
2020/03/25 08:09:09;;;;;;;14.3;9.9;;;;;;;8.55;33.33008;1011.919;;;;
2020/03/25 08:11:34;;;;;;;14.8;9.7;;;;;;;7.89;33.58691;1011.892;;;;
2020/03/25 08:13:59;;;;;;;13.9;9.9;;;;;;;8.13;34.02734;1011.802;;;;
2020/03/25 08:16:24;;;;;;;13.3;9.6;;;;;;;8.65;32.19922;1011.74;;;;
2020/03/25 08:18:50;;;;;;;14.3;10;;;;;;;8.11;33.03516;1011.794;;;;
2020/03/25 08:21:15;;;;;;;13.1;9.4;;;;;;;8.37;32.47363;1011.67;;;;
2020/03/25 08:23:40;;;;;;;14;9.7;;;;;;;8.25;33.0918;1011.712;;;;
2020/03/25 08:26:05;;;;;;;13.6;9.3;;;;;;;9.32;31.64355;1011.642;;;;
2020/03/25 08:28:31;;;;;;;14.7;10.1;;;;;;;9.14;31.88184;1011.604;;;;
2020/03/25 08:31:14;;;;;;;13;9.5;;;;;;;9.24;31.52344;1011.572;;;;
2020/03/25 08:33:21;;;;;;;13.8;9.5;;;;;;;9.24;31.375;1011.595;;;;
2020/03/25 08:35:46;;;;;;;13.8;9.6;;;;;;;9.5;30.77734;1011.553;;;;
2020/03/25 08:38:11;;;;;;;14.9;9.3;;;;;;;9.39;30.56348;1011.567;;;;
2020/03/25 08:40:36;;;;;;;15.9;9.4;;;;;;;9.05;31.37402;1011.581;;;;
2020/03/25 08:43:01;;;;;;;13.8;9.9;;;;;;;9.25;31.2168;1011.474;;;;
2020/03/25 08:45:26;;;;;;;13.9;9.6;;;;;;;9.44;30.73926;1011.476;;;;
2020/03/25 08:47:51;;;;;;;14.7;9.2;;;;;;;9.56;30.23438;1011.514;;;;
2020/03/25 08:50:16;;;;;;;13.7;9.5;;;;;;;9.04;31.24707;1011.532;;;;
2020/03/25 08:52:42;;;;;;;13;9.4;;;;;;;8.66;31.27637;1011.308;;;;
2020/03/25 08:55:07;;;;;;;13.5;9.9;;;;;;;8.88;30.88184;1011.417;;;;
2020/03/25 08:57:56;;;;;;;14.5;9.9;;;;;;;8.87;31.55371;1011.337;;;;
2020/03/25 09:00:34;;;;;;;14.8;9.8;;;;;;;8.99;31.11816;1011.44;;;;
2020/03/25 09:03:15;;;;;;;14.2;9.7;;;;;;;10.02;30.79102;1011.287;;;;
2020/03/25 09:05:40;;;;;;;13.6;9.6;;;;;;;9.2;31.22461;1011.337;;;;
2020/03/25 09:08:05;;;;;;;14.3;9.6;;;;;;;8.61;31.77441;1011.334;;;;
2020/03/25 09:10:31;;;;;;;15.1;9.8;;;;;;;8.85;31.70117;1011.284;;;;
2020/03/25 09:12:56;;;;;;;15;10;;;;;;;8.46;31.40918;1011.323;;;;
2020/03/25 09:15:21;;;;;;;16.2;10;;;;;;;9.43;31.0127;1011.125;;;;
2020/03/25 09:17:46;;;;;;;16;10.4;;;;;;;10.01;30.73438;1011.303;;;;
2020/03/25 09:20:11;;;;;;;16.4;10;;;;;;;9.35;31.05176;1011.191;;;;
2020/03/25 09:22:36;;;;;;;14.7;9.7;;;;;;;10.29;30.14746;1011.167;;;;
2020/03/25 09:25:01;;;;;;;17.1;10.6;;;;;;;10.1;30.37402;1011.145;;;;
2020/03/25 09:27:26;;;;;;;16.6;9.7;;;;;;;10.11;30.25;1011.071;;;;
2020/03/25 09:29:51;;;;;;;15.3;10;;;;;;;10.43;29.53906;1011.069;;;;
2020/03/25 09:32:17;;;;;;;16.3;9.9;;;;;;;9.83;30.29883;1011.052;;;;
2020/03/25 09:34:42;;;;;;;16.4;10.2;;;;;;;10.05;30.11914;1011.159;;;;
2020/03/25 09:37:07;;;;;;;14.9;10.1;;;;;;;10.23;29.75488;1011.09;;;;
2020/03/25 09:39:32;;;;;;;14.4;9.6;;;;;;;10.39;29.70801;1011.194;;;;
2020/03/25 09:41:57;;;;;;;15.4;10;;;;;;;9.56;30.46289;1010.977;;;;
2020/03/25 09:44:22;;;;;;;15.2;9.6;;;;;;;9.4;31.15918;1010.905;;;;
2020/03/25 09:46:47;;;;;;;14.9;9.8;;;;;;;9.58;30.75977;1010.945;;;;
2020/03/25 09:49:12;;;;;;;15.6;10;;;;;;;9.96;30.26172;1010.964;;;;
2020/03/25 09:51:37;;;;;;;14.4;9.5;;;;;;;9.91;30.58984;1010.931;;;;
2020/03/25 09:54:03;;;;;;;14.5;10;;;;;;;10.12;30.2041;1010.83;;;;
2020/03/25 09:56:28;;;;;;;14;9;;;;;;;9.35;30.79004;1010.718;;;;
2020/03/25 09:58:53;;;;;;;15.7;10;;;;;;;9.06;31.37402;1010.851;;;;
2020/03/25 10:01:18;;;;;;;14;9.6;;;;;;;9.93;30.5918;1010.753;;;;
2020/03/25 10:03:43;;;;;;;17.2;9.6;;;;;;;10.76;29.28711;1010.64;;;;
2020/03/25 10:06:08;;;;;;;16.4;10.1;;;;;;;10.21;29.63867;1010.631;;;;
2020/03/25 10:08:33;;;;;;;13.1;9.2;;;;;;;9.5;30.51465;1010.725;;;;
2020/03/25 10:10:58;;;;;;;12.9;9.4;;;;;;;9.1;31.46777;1010.645;;;;
2020/03/25 10:13:23;;;;;;;15.3;9.4;;;;;;;8.99;31.27734;1010.572;;;;
2020/03/25 10:15:48;;;;;;;16.4;10.1;;;;;;;9.19;31.69141;1010.515;;;;
2020/03/25 10:18:14;;;;;;;13.7;9.9;;;;;;;9.07;31.37402;1010.495;;;;
2020/03/25 10:20:38;;;;;;;15.1;9.7;;;;;;;9.1;31.53711;1010.516;;;;
2020/03/25 10:23:04;;;;;;;15.3;10;;;;;;;9.13;31.49316;1010.301;;;;
2020/03/25 10:25:29;;;;;;;15.1;9.3;;;;;;;8.75;31.76172;1010.394;;;;
2020/03/25 10:27:54;;;;;;;13.2;9.3;;;;;;;8.74;31.90918;1010.291;;;;
2020/03/25 10:30:19;;;;;;;15.4;9.6;;;;;;;8.58;32.2959;1010.128;;;;
2020/03/25 10:32:44;;;;;;;14.1;9.6;;;;;;;8.69;32.25879;1010.144;;;;
2020/03/25 10:35:09;;;;;;;14.8;9.5;;;;;;;9.12;31.85742;1010.009;;;;
2020/03/25 10:37:34;;;;;;;14.8;9.4;;;;;;;8.38;32.51953;1010.083;;;;
2020/03/25 10:39:59;;;;;;;16.9;9.5;;;;;;;9.02;31.99902;1009.994;;;;
2020/03/25 10:42:24;;;;;;;13.7;9.6;;;;;;;9.42;31.94824;1009.955;;;;
2020/03/25 10:44:50;;;;;;;12.9;9.4;;;;;;;8.56;32.35156;1009.885;;;;
2020/03/25 10:47:15;;;;;;;14.7;9.7;;;;;;;8.6;32.84473;1009.848;;;;
2020/03/25 10:49:40;;;;;;;15.7;10.1;;;;;;;8.49;33.41797;1009.909;;;;
2020/03/25 10:52:05;;;;;;;15.6;9.9;;;;;;;8.36;33.73828;1009.832;;;;
2020/03/25 10:54:30;;;;;;;16.2;9.7;;;;;;;7.82;33.95703;1009.661;;;;
2020/03/25 10:56:55;;;;;;;14.9;10.4;;;;;;;8.08;34.97852;1009.646;;;;
2020/03/25 10:59:20;;;;;;;15.1;9.5;;;;;;;7.85;34.5166;1009.578;;;;
2020/03/25 11:01:45;;;;;;;14.4;10;;;;;;;7.71;34.49414;1009.517;;;;
2020/03/25 11:04:11;;;;;;;13.6;9.4;;;;;;;7.44;34.43848;1009.452;;;;
2020/03/25 11:06:36;;;;;;;15.2;9.5;;;;;;;7.73;34.2793;1009.42;;;;
2020/03/25 11:09:01;;;;;;;15.2;9.4;;;;;;;7.64;35.64844;1009.411;;;;
2020/03/25 11:11:26;;;;;;;14.9;10.1;;;;;;;7.62;34.81641;1009.408;;;;
2020/03/25 11:13:51;;;;;;;16.7;10.1;;;;;;;7.69;34.9248;1009.31;;;;
2020/03/25 11:16:17;;;;;;;14.7;10.2;;;;;;;7.54;35.00293;1009.345;;;;
2020/03/25 11:18:42;;;;;;;14.4;9.9;;;;;;;7.78;35.10254;1009.188;;;;
2020/03/25 11:21:07;;;;;;;15.4;9.6;;;;;;;7.72;34.8584;1009.068;;;;
2020/03/25 11:23:32;;;;;;;13.5;9.4;;;;;;;7.88;35.01953;1009.088;;;;
2020/03/25 11:25:57;;;;;;;15.6;9.8;;;;;;;8.02;34.04102;1009.378;;;;
2020/03/25 11:28:22;;;;;;;14.2;9.6;;;;;;;7.89;34.38281;1009.266;;;;
2020/03/25 11:30:47;;;;;;;14.5;9.9;;;;;;;7.95;34.44531;1009.318;;;;
2020/03/25 11:33:12;;;;;;;17.5;9.7;;;;;;;8.02;34.45117;1009.224;;;;
2020/03/25 11:35:37;;;;;;;14.2;9;;;;;;;8.24;34.49121;1009.154;;;;
2020/03/25 11:38:02;;;;;;;15.4;9.4;;;;;;;8.31;33.93848;1009.243;;;;
2020/03/25 11:40:28;;;;;;;14.5;9.6;;;;;;;7.94;34.01172;1009.37;;;;
2020/03/25 11:42:53;;;;;;;15.7;8.8;;;;;;;7.61;34.41797;1008.911;;;;
2020/03/25 11:45:18;;;;;;;13.4;9.3;;;;;;;7.9;34.00879;1009.09;;;;
2020/03/25 11:47:43;;;;;;;13.5;9.2;;;;;;;8.03;33.51855;1009.059;;;;
2020/03/25 11:50:08;;;;;;;14.2;8.7;;;;;;;7.95;34.09277;1009.067;;;;
2020/03/25 11:52:33;;;;;;;14.2;9.3;;;;;;;8.23;33.77246;1008.973;;;;
2020/03/25 11:54:58;;;;;;;14.4;9.3;;;;;;;8.35;33.65723;1008.896;;;;
2020/03/25 11:57:23;;;;;;;13.8;9;;;;;;;8.68;33.72852;1008.954;;;;
2020/03/25 11:59:48;;;;;;;14.3;9;;;;;;;8.58;32.84277;1008.876;;;;
2020/03/25 12:02:13;;;;;;;12.9;8.5;;;;;;;8.54;32.56641;1008.809;;;;
2020/03/25 12:04:38;;;;;;;12.6;8.7;;;;;;;8.62;32.81152;1008.736;;;;
2020/03/25 12:07:04;;;;;;;13.7;9.3;;;;;;;8.66;32.92969;1008.828;;;;
2020/03/25 12:09:29;;;;;;;13.1;9.4;;;;;;;8.81;32.25684;1008.663;;;;
2020/03/25 12:11:54;;;;;;;11.1;7.4;;;;;;;8.56;30.52832;1008.766;;;;
2020/03/25 12:14:19;;;;;;;12.9;8.4;;;;;;;8.65;30.88867;1008.6;;;;
2020/03/25 12:16:44;;;;;;;14.3;9.1;;;;;;;8.61;31.2959;1008.47;;;;
2020/03/25 12:19:09;;;;;;;14.3;8.5;;;;;;;8.74;31.90918;1008.377;;;;
2020/03/25 12:21:34;;;;;;;14;9.5;;;;;;;8.85;32.38477;1008.388;;;;
2020/03/25 12:23:59;;;;;;;13.2;8.9;;;;;;;9.04;32.03418;1008.328;;;;
2020/03/25 12:26:25;;;;;;;14.4;9.2;;;;;;;9.01;31.07324;1008.538;;;;
2020/03/25 12:28:49;;;;;;;11.7;8.1;;;;;;;8.9;30.78027;1008.335;;;;
2020/03/25 12:31:15;;;;;;;12.9;8.5;;;;;;;8.98;30.90039;1008.334;;;;
2020/03/25 12:33:40;;;;;;;11.6;7.7;;;;;;;8.86;30.23047;1008.228;;;;
2020/03/25 12:36:05;;;;;;;12;7.8;;;;;;;8.75;30.22266;1008.333;;;;
2020/03/25 12:38:30;;;;;;;12;7.9;;;;;;;8.92;30.17773;1008.169;;;;
2020/03/25 12:40:55;;;;;;;10.9;7.6;;;;;;;8.97;29.86133;1008.262;;;;
2020/03/25 12:43:20;;;;;;;13.1;8;;;;;;;9.13;30.00977;1008.126;;;;
2020/03/25 12:45:45;;;;;;;12.7;7.5;;;;;;;8.99;29.27051;1008.013;;;;
2020/03/25 12:48:10;;;;;;;13.2;8.5;;;;;;;8.95;30.09961;1007.996;;;;
2020/03/25 12:50:36;;;;;;;12.6;8.5;;;;;;;9.03;29.67188;1007.954;;;;
2020/03/25 12:53:01;;;;;;;11;7.6;;;;;;;9.06;29.82227;1007.94;;;;
2020/03/25 12:55:26;;;;;;;10.3;7.5;;;;;;;9.17;29.4873;1007.912;;;;
2020/03/25 12:57:51;;;;;;;12.5;7.9;;;;;;;9.42;29.48145;1007.921;;;;
2020/03/25 13:00:16;;;;;;;11.1;7.5;;;;;;;9.29;29.00488;1008.102;;;;
2020/03/25 13:02:41;;;;;;;12.7;8;;;;;;;9.25;29.31055;1007.883;;;;
2020/03/25 13:05:06;;;;;;;12;7.7;;;;;;;9.22;28.85156;1007.867;;;;
2020/03/25 13:07:31;;;;;;;11.4;7.9;;;;;;;9.28;28.63965;1007.809;;;;
2020/03/25 13:09:57;;;;;;;11.4;7.6;;;;;;;9.34;29.04199;1007.874;;;;
2020/03/25 13:12:22;;;;;;;11.3;7.6;;;;;;;9.34;28.27734;1007.899;;;;
2020/03/25 13:14:47;;;;;;;10.5;7.3;;;;;;;9.21;28.15527;1007.827;;;;
2020/03/25 13:17:12;;;;;;;12.4;7.5;;;;;;;9.39;28.47461;1007.833;;;;
2020/03/25 13:19:37;;;;;;;10.9;7.6;;;;;;;9.28;28.45605;1007.78;;;;
2020/03/25 13:22:02;;;;;;;12.3;7.1;;;;;;;9.31;28.5498;1007.701;;;;
2020/03/25 13:24:27;;;;;;;11;7.2;;;;;;;9.44;28.2041;1007.894;;;;
2020/03/25 13:26:52;;;;;;;11.5;7.4;;;;;;;9.59;28.79688;1007.648;;;;
2020/03/25 13:29:18;;;;;;;9.7;7.2;;;;;;;9.56;28.33789;1007.776;;;;
2020/03/25 13:31:43;;;;;;;12.6;7;;;;;;;9.37;28.05176;1007.729;;;;
2020/03/25 13:34:08;;;;;;;13;7.4;;;;;;;9.54;28.42773;1007.534;;;;
2020/03/25 13:36:33;;;;;;;12;7.4;;;;;;;9.51;28.13965;1007.624;;;;
2020/03/25 13:38:58;;;;;;;10.4;7.4;;;;;;;9.51;28.28809;1007.683;;;;
2020/03/25 13:41:23;;;;;;;11.6;7.8;;;;;;;9.31;28.38965;1007.458;;;;
2020/03/25 13:43:48;;;;;;;11.8;7.7;;;;;;;9.28;28.29688;1007.509;;;;
2020/03/25 13:46:13;;;;;;;11.1;7.4;;;;;;;9.26;28.29492;1007.487;;;;
2020/03/25 13:48:38;;;;;;;10.1;7.5;;;;;;;9.27;28.55762;1007.175;;;;
2020/03/25 13:51:04;;;;;;;11.7;7.6;;;;;;;9.44;28.69531;1007.355;;;;
2020/03/25 13:53:29;;;;;;;12;7.5;;;;;;;9.61;28.48926;1007.1;;;;
2020/03/25 13:55:54;;;;;;;11.2;7;;;;;;;9.45;27.83887;1007.131;;;;
2020/03/25 13:58:19;;;;;;;12.4;7.5;;;;;;;9.49;27.8877;1007.107;;;;
2020/03/25 14:00:44;;;;;;;9.6;6.8;;;;;;;9.49;27.77344;1007.135;;;;
2020/03/25 14:03:09;;;;;;;12.1;6.8;;;;;;;9.49;27.92188;1007.211;;;;
2020/03/25 14:05:34;;;;;;;10.7;7.4;;;;;;;9.46;28.52539;1007.11;;;;
2020/03/25 14:07:59;;;;;;;11.2;7.8;;;;;;;9.62;28.2959;1007.099;;;;
2020/03/25 14:10:24;;;;;;;12.9;7.6;;;;;;;9.55;28.12012;1006.897;;;;
2020/03/25 14:12:49;;;;;;;12.2;7.3;;;;;;;9.72;28.45117;1006.896;;;;
2020/03/25 14:15:14;;;;;;;10.6;7.6;;;;;;;9.86;28.09473;1006.853;;;;